Time;durP1;ratioP1;P1;durP2;ratioP2;P2;SDS_P1;SDS_P2;PMS_P1;PMS_P2;Temp;Humidity;BMP_temperature;BMP_pressure;BME280_temperature;BME280_humidity;BME280_pressure;Samples;Min_cycle;Max_cycle;Signal;HPM_P1;HPM_P2
2021/03/21 00:00:24;;;;;;;;;;;;;;;;;;5070959;28;869;-61
2021/03/21 00:02:50;;;;;;;;;;;;;;;;;;5070972;28;807;-62
2021/03/21 00:05:15;;;;;;;;;;;;;;;;;;5057512;28;1226;-62
2021/03/21 00:07:41;;;;;;;;;;;;;;;;;;5051018;28;831;-62
2021/03/21 00:10:07;;;;;;;;;;;;;;;;;;5051020;28;799;-62
2021/03/21 00:12:33;;;;;;;;;;;;;;;;;;5052110;28;1890;-61
2021/03/21 00:14:58;;;;;;;;;;;;;;;;;;5054287;28;1064;-61
2021/03/21 00:17:24;;;;;;;;;;;;;;;;;;5051024;28;827;-62
2021/03/21 00:19:50;;;;;;;;;;;;;;;;;;5051086;28;815;-61
2021/03/21 00:22:15;;;;;;;;;;;;;;;;;;5050728;28;894;-61
2021/03/21 00:24:40;;;;;;;;;;;;;;;;;;5050337;28;883;-62
2021/03/21 00:27:06;;;;;;;;;;;;;;;;;;5050385;28;957;-62
2021/03/21 00:29:31;;;;;;;;;;;;;;;;;;5050747;28;666;-61
2021/03/21 00:31:57;;;;;;;;;;;;;;;;;;5050533;28;831;-61
2021/03/21 00:34:22;;;;;;;;;;;;;;;;;;5050183;28;1885;-61
2021/03/21 00:36:47;;;;;;;;;;;;;;;;;;5049892;28;905;-61
2021/03/21 00:39:13;;;;;;;;;;;;;;;;;;5050094;28;823;-61
2021/03/21 00:41:38;;;;;;;;;;;;;;;;;;5049658;28;1114;-62
2021/03/21 00:44:04;;;;;;;;;;;;;;;;;;5048502;28;1672;-61
2021/03/21 00:46:30;;;;;;;;;;;;;;;;;;5050308;28;910;-61
2021/03/21 00:48:56;;;;;;;;;;;;;;;;;;5049316;28;896;-61
2021/03/21 00:51:21;;;;;;;;;;;;;;;;;;5049035;28;899;-61
2021/03/21 00:53:47;;;;;;;;;;;;;;;;;;5058733;28;1973;-61
2021/03/21 00:56:33;;;;;;;;;;;;;;;;;;5068960;28;850;-61
2021/03/21 00:58:58;;;;;;;;;;;;;;;;;;5069146;28;1256;-61
2021/03/21 01:01:24;;;;;;;;;;;;;;;;;;5068354;28;886;-61
2021/03/21 01:03:50;;;;;;;;;;;;;;;;;;5066903;28;1079;-61
2021/03/21 01:06:15;;;;;;;;;;;;;;;;;;5048553;28;828;-61
2021/03/21 01:08:41;;;;;;;;;;;;;;;;;;5048207;28;934;-62
2021/03/21 01:11:17;;;;;;;;;;;;;;;;;;5049023;28;879;-61
2021/03/21 01:13:43;;;;;;;;;;;;;;;;;;5048515;28;1890;-61
2021/03/21 01:16:10;;;;;;;;;;;;;;;;;;5048753;28;815;-62
2021/03/21 01:18:35;;;;;;;;;;;;;;;;;;5048947;28;891;-61
2021/03/21 01:21:02;;;;;;;;;;;;;;;;;;5049437;28;795;-61
2021/03/21 01:23:28;;;;;;;;;;;;;;;;;;5048532;28;851;-61
2021/03/21 01:25:53;;;;;;;;;;;;;;;;;;5048633;28;835;-62
2021/03/21 01:28:32;;;;;;;;;;;;;;;;;;5048790;28;906;-61
2021/03/21 01:30:58;;;;;;;;;;;;;;;;;;5048337;28;890;-61
2021/03/21 01:33:27;;;;;;;;;;;;;;;;;;5048251;28;1894;-62
2021/03/21 01:35:53;;;;;;;;;;;;;;;;;;5048642;28;839;-62
2021/03/21 01:38:19;;;;;;;;;;;;;;;;;;5048293;28;757;-61
2021/03/21 01:40:45;;;;;;;;;;;;;;;;;;5047845;28;799;-62
2021/03/21 01:43:14;;;;;;;;;;;;;;;;;;5020512;28;798695;-61
2021/03/21 01:45:47;;;;;;;;;;;;;;;;;;5049614;28;894;-62
2021/03/21 01:48:18;;;;;;;;;;;;;;;;;;5049118;28;925;-62
2021/03/21 01:50:46;;;;;;;;;;;;;;;;;;5048331;28;839;-62
2021/03/21 01:53:12;;;;;;;;;;;;;;;;;;5053381;28;1977;-62
2021/03/21 01:55:38;;;;;;;;;;;;;;;;;;5068899;28;914;-62
2021/03/21 01:58:04;;;;;;;;;;;;;;;;;;5068611;28;877;-62
2021/03/21 02:00:30;;;;;;;;;;;;;;;;;;5069156;28;949;-61
2021/03/21 02:02:55;;;;;;;;;;;;;;;;;;5068819;28;807;-62
2021/03/21 02:05:21;;;;;;;;;;;;;;;;;;5054096;28;1096;-61
2021/03/21 02:08:01;;;;;;;;;;;;;;;;;;5051171;28;1207;-61
2021/03/21 02:10:40;;;;;;;;;;;;;;;;;;5048494;28;839;-61
2021/03/21 02:13:08;;;;;;;;;;;;;;;;;;5047567;28;1888;-61
2021/03/21 02:15:43;;;;;;;;;;;;;;;;;;5046993;28;903;-62
2021/03/21 02:18:24;;;;;;;;;;;;;;;;;;5048574;28;792;-61
2021/03/21 02:21:07;;;;;;;;;;;;;;;;;;5048403;28;897;-61
2021/03/21 02:23:39;;;;;;;;;;;;;;;;;;5046808;28;871;-61
2021/03/21 02:26:23;;;;;;;;;;;;;;;;;;5048087;28;930;-61
2021/03/21 02:29:07;;;;;;;;;;;;;;;;;;5048316;28;846;-61
2021/03/21 02:31:53;;;;;;;;;;;;;;;;;;5048524;28;890;-61
2021/03/21 02:34:41;;;;;;;;;;;;;;;;;;5047487;28;1945;-61
2021/03/21 02:37:11;;;;;;;;;;;;;;;;;;5045370;28;1824;-61
2021/03/21 02:39:45;;;;;;;;;;;;;;;;;;5047871;28;870;-62
2021/03/21 02:42:15;;;;;;;;;;;;;;;;;;5047665;28;863;-61
2021/03/21 02:44:45;;;;;;;;;;;;;;;;;;5048202;28;942;-61
2021/03/21 02:47:14;;;;;;;;;;;;;;;;;;5047802;28;886;-62
2021/03/21 02:49:43;;;;;;;;;;;;;;;;;;5047367;28;867;-61
2021/03/21 02:52:10;;;;;;;;;;;;;;;;;;5047272;28;874;-61
2021/03/21 02:54:39;;;;;;;;;;;;;;;;;;5063771;28;1894;-61
2021/03/21 02:57:09;;;;;;;;;;;;;;;;;;5067633;28;1077;-61
2021/03/21 02:59:37;;;;;;;;;;;;;;;;;;5067527;28;847;-61
2021/03/21 03:02:09;;;;;;;;;;;;;;;;;;5068380;28;901;-62
2021/03/21 03:04:36;;;;;;;;;;;;;;;;;;5059389;28;957;-62
2021/03/21 03:07:09;;;;;;;;;;;;;;;;;;5048260;28;882;-61
2021/03/21 03:09:37;;;;;;;;;;;;;;;;;;5048124;28;872;-61
2021/03/21 03:12:08;;;;;;;;;;;;;;;;;;5047904;28;843;-63
2021/03/21 03:14:35;;;;;;;;;;;;;;;;;;5047514;28;1894;-61
2021/03/21 03:17:12;;;;;;;;;;;;;;;;;;5048620;28;831;-61
2021/03/21 03:19:43;;;;;;;;;;;;;;;;;;5047897;28;878;-61
2021/03/21 03:22:19;;;;;;;;;;;;;;;;;;5047467;28;822;-61
2021/03/21 03:25:01;;;;;;;;;;;;;;;;;;5047562;28;822;-61
2021/03/21 03:27:44;;;;;;;;;;;;;;;;;;5047527;28;921;-61
2021/03/21 03:30:16;;;;;;;;;;;;;;;;;;5047410;28;858;-61
2021/03/21 03:32:41;;;;;;;;;;;;;;;;;;5047381;28;1961;-61
2021/03/21 03:35:09;;;;;;;;;;;;;;;;;;5047006;28;889;-61
2021/03/21 03:37:35;;;;;;;;;;;;;;;;;;5046629;28;894;-61
2021/03/21 03:40:01;;;;;;;;;;;;;;;;;;5047236;28;839;-61
2021/03/21 03:42:26;;;;;;;;;;;;;;;;;;5046602;28;811;-61
2021/03/21 03:45:21;;;;;;;;;;;;;;;;;;5047097;28;1036;-61
2021/03/21 03:47:49;;;;;;;;;;;;;;;;;;5041959;28;1589;-61
2021/03/21 03:50:28;;;;;;;;;;;;;;;;;;5047225;28;887;-61
2021/03/21 03:53:02;;;;;;;;;;;;;;;;;;5049057;28;1981;-61
2021/03/21 03:55:28;;;;;;;;;;;;;;;;;;5067596;28;856;-61
2021/03/21 03:57:53;;;;;;;;;;;;;;;;;;5067011;28;834;-61
2021/03/21 04:00:26;;;;;;;;;;;;;;;;;;5067177;28;938;-60
2021/03/21 04:03:10;;;;;;;;;;;;;;;;;;5066958;28;803;-61
2021/03/21 04:05:39;;;;;;;;;;;;;;;;;;5049802;28;977;-61
2021/03/21 04:08:04;;;;;;;;;;;;;;;;;;5047321;28;878;-61
2021/03/21 04:10:39;;;;;;;;;;;;;;;;;;5047765;28;819;-61
2021/03/21 04:13:04;;;;;;;;;;;;;;;;;;5046779;28;1961;-61
2021/03/21 04:15:33;;;;;;;;;;;;;;;;;;5049837;28;1157;-61
2021/03/21 04:18:05;;;;;;;;;;;;;;;;;;5047503;28;811;-61
2021/03/21 04:20:39;;;;;;;;;;;;;;;;;;5047635;28;851;-61
2021/03/21 04:23:04;;;;;;;;;;;;;;;;;;5046655;28;811;-61
2021/03/21 04:25:38;;;;;;;;;;;;;;;;;;5047735;28;822;-61
2021/03/21 04:28:09;;;;;;;;;;;;;;;;;;5047183;28;831;-62
2021/03/21 04:30:38;;;;;;;;;;;;;;;;;;5046560;28;811;-60
2021/03/21 04:33:06;;;;;;;;;;;;;;;;;;5047614;28;1886;-61
2021/03/21 04:36:04;;;;;;;;;;;;;;;;;;5047365;28;862;-60
2021/03/21 04:38:38;;;;;;;;;;;;;;;;;;5038154;28;1421;-61
2021/03/21 04:41:05;;;;;;;;;;;;;;;;;;5051423;28;874;-61
2021/03/21 04:43:31;;;;;;;;;;;;;;;;;;5050705;28;874;-61
2021/03/21 04:46:03;;;;;;;;;;;;;;;;;;5049289;28;847;-61
2021/03/21 04:48:29;;;;;;;;;;;;;;;;;;5050208;28;855;-60
2021/03/21 04:51:16;;;;;;;;;;;;;;;;;;5049695;28;918;-60
2021/03/21 04:53:45;;;;;;;;;;;;;;;;;;5057949;28;1969;-60
2021/03/21 04:56:10;;;;;;;;;;;;;;;;;;5069563;28;842;-60
2021/03/21 04:58:41;;;;;;;;;;;;;;;;;;5069707;28;850;-61
2021/03/21 05:01:11;;;;;;;;;;;;;;;;;;5069274;28;859;-60
2021/03/21 05:03:45;;;;;;;;;;;;;;;;;;5069528;28;921;-60
2021/03/21 05:06:17;;;;;;;;;;;;;;;;;;5050228;28;884;-60
2021/03/21 05:08:54;;;;;;;;;;;;;;;;;;5049666;28;831;-61
2021/03/21 05:11:20;;;;;;;;;;;;;;;;;;5049702;28;842;-61
2021/03/21 05:13:55;;;;;;;;;;;;;;;;;;5048261;28;1985;-62
2021/03/21 05:16:26;;;;;;;;;;;;;;;;;;5049227;28;870;-61
2021/03/21 05:19:12;;;;;;;;;;;;;;;;;;5049089;28;941;-61
2021/03/21 05:21:41;;;;;;;;;;;;;;;;;;5048480;28;1284;-62
2021/03/21 05:24:16;;;;;;;;;;;;;;;;;;5049114;28;930;-61
2021/03/21 05:26:41;;;;;;;;;;;;;;;;;;5048824;28;918;-61
2021/03/21 05:29:12;;;;;;;;;;;;;;;;;;5048998;28;882;-61
2021/03/21 05:31:37;;;;;;;;;;;;;;;;;;5049139;28;870;-62
2021/03/21 05:34:02;;;;;;;;;;;;;;;;;;5049378;28;1966;-61
2021/03/21 05:36:43;;;;;;;;;;;;;;;;;;5050085;28;717;-61
2021/03/21 05:39:32;;;;;;;;;;;;;;;;;;5049609;28;890;-61
2021/03/21 05:42:21;;;;;;;;;;;;;;;;;;5037927;28;1235;-60
2021/03/21 05:44:57;;;;;;;;;;;;;;;;;;5048431;28;867;-62
2021/03/21 05:47:40;;;;;;;;;;;;;;;;;;5048576;28;910;-62
2021/03/21 05:50:33;;;;;;;;;;;;;;;;;;5047935;28;823;-62
2021/03/21 05:53:02;;;;;;;;;;;;;;;;;;5049046;28;1902;-62
2021/03/21 05:55:27;;;;;;;;;;;;;;;;;;5048569;28;830;-61
2021/03/21 05:58:01;;;;;;;;;;;;;;;;;;5048610;28;1001;-61
2021/03/21 06:00:37;;;;;;;;;;;;;;;;;;5048037;28;883;-61
2021/03/21 06:03:22;;;;;;;;;;;;;;;;;;5049102;28;827;-61
2021/03/21 06:05:50;;;;;;;;;;;;;;;;;;5048205;28;969;-61
2021/03/21 06:08:28;;;;;;;;;;;;;;;;;;5048058;28;906;-61
2021/03/21 06:11:08;;;;;;;;;;;;;;;;;;5048530;28;834;-61
2021/03/21 06:13:45;;;;;;;;;;;;;;;;;;5048771;28;1886;-61
2021/03/21 06:16:16;;;;;;;;;;;;;;;;;;5047381;28;866;-61
2021/03/21 06:18:45;;;;;;;;;;;;;;;;;;5062174;28;1040;-61
2021/03/21 06:21:29;;;;;;;;;;;;;;;;;;5068675;28;861;-61
2021/03/21 06:24:06;;;;;;;;;;;;;;;;;;5068011;28;675;-61
2021/03/21 06:26:37;;;;;;;;;;;;;;;;;;5068871;28;811;-61
2021/03/21 06:29:21;;;;;;;;;;;;;;;;;;5069409;28;843;-61
2021/03/21 06:31:59;;;;;;;;;;;;;;;;;;5067980;28;1049;-61
2021/03/21 06:34:33;;;;;;;;;;;;;;;;;;5064861;28;1971;-61
2021/03/21 06:37:27;;;;;;;;;;;;;;;;;;5049160;28;823;-62
2021/03/21 06:40:01;;;;;;;;;;;;;;;;;;5048202;28;819;-62
2021/03/21 06:42:29;;;;;;;;;;;;;;;;;;5045256;28;2398;-62
2021/03/21 06:44:58;;;;;;;;;;;;;;;;;;5047626;28;942;-62
2021/03/21 06:47:42;;;;;;;;;;;;;;;;;;5047895;28;942;-61
2021/03/21 06:50:26;;;;;;;;;;;;;;;;;;5048322;28;859;-62
2021/03/21 06:53:07;;;;;;;;;;;;;;;;;;5047771;28;1914;-61
2021/03/21 06:55:41;;;;;;;;;;;;;;;;;;5048029;28;882;-63
2021/03/21 06:58:28;;;;;;;;;;;;;;;;;;5047441;28;906;-61
2021/03/21 07:01:18;;;;;;;;;;;;;;;;;;5027249;28;816;-61
2021/03/21 07:04:02;;;;;;;;;;;;;;;;;;5028093;28;898;-61
2021/03/21 07:07:05;;;;;;;;;;;;;;;;;;5027479;28;831;-61
2021/03/21 07:09:47;;;;;;;;;;;;;;;;;;5045193;28;1225;-61
2021/03/21 07:12:34;;;;;;;;;;;;;;;;;;5044988;28;962;-62
2021/03/21 07:15:16;;;;;;;;;;;;;;;;;;5033138;28;1882;-61
2021/03/21 07:17:44;;;;;;;;;;;;;;;;;;5026278;28;954;-62
2021/03/21 07:20:28;;;;;;;;;;;;;;;;;;5027859;28;907;-61
2021/03/21 07:23:17;;;;;;;;;;;;;;;;;;5027471;28;910;-61
2021/03/21 07:25:58;;;;;;;;;;;;;;;;;;5026997;28;906;-61
2021/03/21 07:28:26;;;;;;;;;;;;;;;;;;5027584;28;791;-62
2021/03/21 07:30:51;;;;;;;;;;;;;;;;;;5027582;28;922;-61
2021/03/21 07:33:35;;;;;;;;;;;;;;;;;;5027250;28;1886;-61
2021/03/21 07:36:10;;;;;;;;;;;;;;;;;;5037057;28;1213;-61
2021/03/21 07:38:54;;;;;;;;;;;;;;;;;;5047278;28;819;-62
2021/03/21 07:41:39;;;;;;;;;;;;;;;;;;5047222;28;926;-61
2021/03/21 07:44:23;;;;;;;;;;;;;;;;;;5047300;28;918;-61
2021/03/21 07:46:51;;;;;;;;;;;;;;;;;;5046920;28;827;-61
2021/03/21 07:49:32;;;;;;;;;;;;;;;;;;5047067;28;865;-61
2021/03/21 07:51:57;;;;;;;;;;;;;;;;;;5047021;28;930;-62
2021/03/21 07:54:35;;;;;;;;;;;;;;;;;;5046750;28;1893;-62
2021/03/21 07:57:24;;;;;;;;;;;;;;;;;;5047692;28;901;-61
2021/03/21 07:59:49;;;;;;;;;;;;;;;;;;5043331;28;1152;-61
2021/03/21 08:02:19;;;;;;;;;;;;;;;;;;5046737;28;830;-61
2021/03/21 08:04:47;;;;;;;;;;;;;;;;;;5046678;28;697;-62
2021/03/21 08:07:12;;;;;;;;;;;;;;;;;;5046789;28;815;-62
2021/03/21 08:09:38;;;;;;;;;;;;;;;;;;5047373;28;808;-62
2021/03/21 08:12:19;;;;;;;;;;;;;;;;;;5048322;28;823;-62
2021/03/21 08:14:46;;;;;;;;;;;;;;;;;;5053162;28;1882;-62
2021/03/21 08:17:19;;;;;;;;;;;;;;;;;;5050967;28;855;-62
2021/03/21 08:19:44;;;;;;;;;;;;;;;;;;5049462;28;847;-61
2021/03/21 08:22:21;;;;;;;;;;;;;;;;;;5050253;28;1069;-62
2021/03/21 08:24:47;;;;;;;;;;;;;;;;;;5050526;28;859;-61
2021/03/21 08:27:21;;;;;;;;;;;;;;;;;;5050744;28;948;-62
2021/03/21 08:29:57;;;;;;;;;;;;;;;;;;5049940;28;906;-63
2021/03/21 08:32:22;;;;;;;;;;;;;;;;;;5049856;28;851;-62
2021/03/21 08:34:48;;;;;;;;;;;;;;;;;;5040272;28;1890;-61
2021/03/21 08:37:20;;;;;;;;;;;;;;;;;;5030038;28;883;-61
2021/03/21 08:39:50;;;;;;;;;;;;;;;;;;5029925;28;836;-61
2021/03/21 08:42:29;;;;;;;;;;;;;;;;;;5029994;28;835;-61
2021/03/21 08:45:06;;;;;;;;;;;;;;;;;;5029655;28;879;-61
2021/03/21 08:47:32;;;;;;;;;;;;;;;;;;5030050;28;959;-61
2021/03/21 08:49:59;;;;;;;;;;;;;;;;;;5030081;28;934;-61
2021/03/21 08:52:42;;;;;;;;;;;;;;;;;;5030451;28;847;-61
2021/03/21 08:55:22;;;;;;;;;;;;;;;;;;5029980;28;1906;-61
2021/03/21 08:57:48;;;;;;;;;;;;;;;;;;5030113;28;839;-61
2021/03/21 09:00:21;;;;;;;;;;;;;;;;;;5030134;28;966;-61
2021/03/21 09:02:47;;;;;;;;;;;;;;;;;;5029631;28;835;-61
2021/03/21 09:05:13;;;;;;;;;;;;;;;;;;5029623;28;899;-61
2021/03/21 09:07:41;;;;;;;;;;;;;;;;;;5029958;28;851;-61
2021/03/21 09:10:12;;;;;;;;;;;;;;;;;;5029721;28;881;-61
2021/03/21 09:12:38;;;;;;;;;;;;;;;;;;5029534;28;831;-61
2021/03/21 09:15:12;;;;;;;;;;;;;;;;;;5030213;28;1985;-61
2021/03/21 09:17:38;;;;;;;;;;;;;;;;;;5029934;28;918;-61
2021/03/21 09:20:04;;;;;;;;;;;;;;;;;;5029947;28;898;-61
2021/03/21 09:22:33;;;;;;;;;;;;;;;;;;5029970;28;807;-61
2021/03/21 09:25:00;;;;;;;;;;;;;;;;;;5029739;28;890;-61
2021/03/21 09:27:35;;;;;;;;;;;;;;;;;;5029234;28;882;-61
2021/03/21 09:30:17;;;;;;;;;;;;;;;;;;5029615;28;875;-61
2021/03/21 09:32:42;;;;;;;;;;;;;;;;;;5028935;28;867;-61
2021/03/21 09:35:26;;;;;;;;;;;;;;;;;;5031800;28;1964;-61
2021/03/21 09:37:54;;;;;;;;;;;;;;;;;;5049145;28;838;-61
2021/03/21 09:40:28;;;;;;;;;;;;;;;;;;5049195;28;922;-61
2021/03/21 09:42:54;;;;;;;;;;;;;;;;;;5048899;28;938;-61
2021/03/21 09:45:20;;;;;;;;;;;;;;;;;;5048934;28;874;-61
2021/03/21 09:47:48;;;;;;;;;;;;;;;;;;5048731;28;847;-61
2021/03/21 09:50:29;;;;;;;;;;;;;;;;;;5049489;28;867;-61
2021/03/21 09:53:13;;;;;;;;;;;;;;;;;;5048897;28;1914;-62
2021/03/21 09:56:04;;;;;;;;;;;;;;;;;;5048628;28;1168;-62
2021/03/21 09:58:42;;;;;;;;;;;;;;;;;;5041094;28;1275;-62
2021/03/21 10:01:28;;;;;;;;;;;;;;;;;;5048816;28;1310;-61
2021/03/21 10:03:58;;;;;;;;;;;;;;;;;;5048754;28;889;-61
2021/03/21 10:06:27;;;;;;;;;;;;;;;;;;5051312;28;1124;-61
2021/03/21 10:08:57;;;;;;;;;;;;;;;;;;5048549;28;827;-62
2021/03/21 10:11:22;;;;;;;;;;;;;;;;;;5048643;28;859;-62
2021/03/21 10:13:48;;;;;;;;;;;;;;;;;;5048697;28;2341;-62
2021/03/21 10:16:25;;;;;;;;;;;;;;;;;;5048140;28;902;-62
2021/03/21 10:18:52;;;;;;;;;;;;;;;;;;5048199;28;894;-61
2021/03/21 10:21:24;;;;;;;;;;;;;;;;;;5048227;28;847;-62
2021/03/21 10:23:58;;;;;;;;;;;;;;;;;;5048455;28;885;-62
2021/03/21 10:26:30;;;;;;;;;;;;;;;;;;5047736;28;873;-62
2021/03/21 10:28:56;;;;;;;;;;;;;;;;;;5047932;28;922;-62
2021/03/21 10:31:26;;;;;;;;;;;;;;;;;;5048549;28;895;-61
2021/03/21 10:33:51;;;;;;;;;;;;;;;;;;5047791;28;1955;-62
2021/03/21 10:36:35;;;;;;;;;;;;;;;;;;5047407;28;1100;-61
2021/03/21 10:39:01;;;;;;;;;;;;;;;;;;5048977;28;874;-62
2021/03/21 10:41:45;;;;;;;;;;;;;;;;;;5047814;28;866;-61
2021/03/21 10:44:10;;;;;;;;;;;;;;;;;;5047816;28;831;-62
2021/03/21 10:46:47;;;;;;;;;;;;;;;;;;5048039;28;842;-62
2021/03/21 10:49:12;;;;;;;;;;;;;;;;;;5048227;28;822;-62
2021/03/21 10:51:56;;;;;;;;;;;;;;;;;;5047944;28;905;-61
2021/03/21 10:54:25;;;;;;;;;;;;;;;;;;5047536;28;1909;-61
2021/03/21 10:57:26;;;;;;;;;;;;;;;;;;5047893;28;807;-62
2021/03/21 11:00:10;;;;;;;;;;;;;;;;;;5024594;28;1166;-61
2021/03/21 11:02:35;;;;;;;;;;;;;;;;;;5045896;28;1047;-62
2021/03/21 11:05:03;;;;;;;;;;;;;;;;;;5048590;28;823;-62
2021/03/21 11:07:29;;;;;;;;;;;;;;;;;;5047671;28;811;-62
2021/03/21 11:09:57;;;;;;;;;;;;;;;;;;5047535;28;831;-62
2021/03/21 11:12:33;;;;;;;;;;;;;;;;;;5047990;28;867;-62
2021/03/21 11:15:14;;;;;;;;;;;;;;;;;;5047924;28;1901;-62
2021/03/21 11:17:39;;;;;;;;;;;;;;;;;;5047567;28;795;-62
2021/03/21 11:20:20;;;;;;;;;;;;;;;;;;5047572;28;961;-62
2021/03/21 11:22:45;;;;;;;;;;;;;;;;;;5047586;28;872;-62
2021/03/21 11:25:14;;;;;;;;;;;;;;;;;;5047306;28;901;-62
2021/03/21 11:27:39;;;;;;;;;;;;;;;;;;5047211;28;811;-62
2021/03/21 11:30:11;;;;;;;;;;;;;;;;;;5047723;28;898;-62
2021/03/21 11:32:37;;;;;;;;;;;;;;;;;;5047387;28;1125;-62
2021/03/21 11:35:02;;;;;;;;;;;;;;;;;;5047797;28;1902;-62
2021/03/21 11:37:38;;;;;;;;;;;;;;;;;;5047605;28;874;-61
2021/03/21 11:40:25;;;;;;;;;;;;;;;;;;5047467;28;847;-62
2021/03/21 11:43:05;;;;;;;;;;;;;;;;;;5046812;28;1595;-62
2021/03/21 11:45:36;;;;;;;;;;;;;;;;;;5048031;28;902;-62
2021/03/21 11:48:13;;;;;;;;;;;;;;;;;;5050406;28;868;-61
2021/03/21 11:50:40;;;;;;;;;;;;;;;;;;5051582;28;798;-62
2021/03/21 11:53:07;;;;;;;;;;;;;;;;;;5050944;28;1938;-62
2021/03/21 11:55:37;;;;;;;;;;;;;;;;;;5051199;28;855;-61
2021/03/21 11:58:26;;;;;;;;;;;;;;;;;;5052235;28;726;-61
2021/03/21 12:00:59;;;;;;;;;;;;;;;;;;5048271;28;1457;-62
2021/03/21 12:03:25;;;;;;;;;;;;;;;;;;5051661;28;886;-62
2021/03/21 12:06:01;;;;;;;;;;;;;;;;;;5050840;28;819;-62
2021/03/21 12:08:36;;;;;;;;;;;;;;;;;;5053356;28;1080;-61
2021/03/21 12:11:17;;;;;;;;;;;;;;;;;;5052386;28;819;-62
2021/03/21 12:13:43;;;;;;;;;;;;;;;;;;5050900;28;1960;-61
2021/03/21 12:16:27;;;;;;;;;;;;;;;;;;5051197;28;823;-62
2021/03/21 12:18:56;;;;;;;;;;;;;;;;;;5051031;28;1084;-61
2021/03/21 12:21:21;;;;;;;;;;;;;;;;;;5051291;28;902;-61
2021/03/21 12:23:55;;;;;;;;;;;;;;;;;;5050921;28;890;-62
2021/03/21 12:26:37;;;;;;;;;;;;;;;;;;5050646;28;846;-61
2021/03/21 12:29:26;;;;;;;;;;;;;;;;;;5051594;28;918;-61
2021/03/21 12:31:53;;;;;;;;;;;;;;;;;;5047312;28;1933;-61
2021/03/21 12:34:21;;;;;;;;;;;;;;;;;;5049755;28;1951;-62
2021/03/21 12:36:58;;;;;;;;;;;;;;;;;;5050274;28;1096;-62
2021/03/21 12:39:32;;;;;;;;;;;;;;;;;;5050287;28;826;-62
2021/03/21 12:41:57;;;;;;;;;;;;;;;;;;5050600;28;865;-61
2021/03/21 12:44:24;;;;;;;;;;;;;;;;;;5050568;28;925;-61
2021/03/21 12:46:59;;;;;;;;;;;;;;;;;;5050460;28;803;-61
2021/03/21 12:49:27;;;;;;;;;;;;;;;;;;5049870;28;703;-61
2021/03/21 12:51:56;;;;;;;;;;;;;;;;;;5049996;28;901;-61
2021/03/21 12:54:22;;;;;;;;;;;;;;;;;;5049765;28;1897;-61
2021/03/21 12:56:47;;;;;;;;;;;;;;;;;;5050037;28;986;-61
2021/03/21 12:59:12;;;;;;;;;;;;;;;;;;5049332;28;839;-61
2021/03/21 13:01:43;;;;;;;;;;;;;;;;;;5050502;28;870;-61
2021/03/21 13:04:08;;;;;;;;;;;;;;;;;;5049620;28;815;-61
2021/03/21 13:06:34;;;;;;;;;;;;;;;;;;5050251;28;870;-62
2021/03/21 13:08:59;;;;;;;;;;;;;;;;;;5050477;28;917;-61
2021/03/21 13:11:25;;;;;;;;;;;;;;;;;;5049524;28;842;-61
2021/03/21 13:13:50;;;;;;;;;;;;;;;;;;5049093;28;1898;-61
2021/03/21 13:16:17;;;;;;;;;;;;;;;;;;5049507;28;897;-61
2021/03/21 13:18:42;;;;;;;;;;;;;;;;;;5049601;28;830;-61
2021/03/21 13:21:07;;;;;;;;;;;;;;;;;;5049415;28;906;-61
2021/03/21 13:23:33;;;;;;;;;;;;;;;;;;5050229;28;853;-61
2021/03/21 13:25:58;;;;;;;;;;;;;;;;;;5049403;28;807;-61
2021/03/21 13:28:23;;;;;;;;;;;;;;;;;;5047565;28;1621;-61
2021/03/21 13:30:49;;;;;;;;;;;;;;;;;;5049046;28;850;-61
2021/03/21 13:33:16;;;;;;;;;;;;;;;;;;5049241;28;1968;-61
2021/03/21 13:35:42;;;;;;;;;;;;;;;;;;5049276;28;1135;-61
2021/03/21 13:38:07;;;;;;;;;;;;;;;;;;5048983;28;835;-61
2021/03/21 13:40:37;;;;;;;;;;;;;;;;;;5049872;28;799;-61
2021/03/21 13:43:04;;;;;;;;;;;;;;;;;;5050070;28;964;-62
2021/03/21 13:45:31;;;;;;;;;;;;;;;;;;5049595;28;876;-62
2021/03/21 13:47:56;;;;;;;;;;;;;;;;;;5048739;28;858;-62
2021/03/21 13:50:22;;;;;;;;;;;;;;;;;;5049292;28;823;-62
2021/03/21 13:52:47;;;;;;;;;;;;;;;;;;5048849;28;1154;-62
2021/03/21 13:55:19;;;;;;;;;;;;;;;;;;5048757;28;1898;-61
2021/03/21 13:57:44;;;;;;;;;;;;;;;;;;5048550;28;808;-62
2021/03/21 14:00:10;;;;;;;;;;;;;;;;;;5048870;28;936;-62
2021/03/21 14:02:35;;;;;;;;;;;;;;;;;;5048431;28;803;-62
2021/03/21 14:05:01;;;;;;;;;;;;;;;;;;5049250;28;969;-62
2021/03/21 14:07:26;;;;;;;;;;;;;;;;;;5047851;28;875;-62
2021/03/21 14:09:51;;;;;;;;;;;;;;;;;;5046254;28;1350;-62
2021/03/21 14:12:17;;;;;;;;;;;;;;;;;;5048710;28;839;-61
2021/03/21 14:14:42;;;;;;;;;;;;;;;;;;5049172;28;1963;-62
2021/03/21 14:17:07;;;;;;;;;;;;;;;;;;5050999;28;1152;-62
2021/03/21 14:19:33;;;;;;;;;;;;;;;;;;5049305;28;831;-62
2021/03/21 14:21:58;;;;;;;;;;;;;;;;;;5048334;28;826;-62
2021/03/21 14:24:23;;;;;;;;;;;;;;;;;;5047572;28;879;-62
2021/03/21 14:26:49;;;;;;;;;;;;;;;;;;5048663;28;835;-62
2021/03/21 14:29:14;;;;;;;;;;;;;;;;;;5048433;28;826;-62
2021/03/21 14:31:40;;;;;;;;;;;;;;;;;;5048503;28;828;-62
2021/03/21 14:34:05;;;;;;;;;;;;;;;;;;5048636;28;1909;-62
2021/03/21 14:36:31;;;;;;;;;;;;;;;;;;5048959;28;1068;-62
2021/03/21 14:38:56;;;;;;;;;;;;;;;;;;5047049;28;886;-62
2021/03/21 14:41:21;;;;;;;;;;;;;;;;;;5048881;28;817;-61
2021/03/21 14:43:47;;;;;;;;;;;;;;;;;;5048119;28;968;-62
2021/03/21 14:46:12;;;;;;;;;;;;;;;;;;5046546;28;961;-62
2021/03/21 14:48:38;;;;;;;;;;;;;;;;;;5047964;28;1001;-62
2021/03/21 14:51:03;;;;;;;;;;;;;;;;;;5049306;28;866;-61
2021/03/21 14:53:29;;;;;;;;;;;;;;;;;;5048363;28;1902;-62
2021/03/21 14:55:55;;;;;;;;;;;;;;;;;;5048010;28;705;-62
2021/03/21 14:58:24;;;;;;;;;;;;;;;;;;5048080;28;851;-62
2021/03/21 15:00:50;;;;;;;;;;;;;;;;;;5047819;28;834;-62
2021/03/21 15:03:15;;;;;;;;;;;;;;;;;;5047744;28;791;-62
2021/03/21 15:05:41;;;;;;;;;;;;;;;;;;5047872;28;891;-62
2021/03/21 15:08:07;;;;;;;;;;;;;;;;;;5047681;28;807;-62
2021/03/21 15:10:33;;;;;;;;;;;;;;;;;;5048353;28;855;-62
2021/03/21 15:12:59;;;;;;;;;;;;;;;;;;5047883;28;835;-61
2021/03/21 15:15:33;;;;;;;;;;;;;;;;;;5048193;28;1882;-62
2021/03/21 15:17:59;;;;;;;;;;;;;;;;;;5047533;28;831;-62
2021/03/21 15:20:26;;;;;;;;;;;;;;;;;;5047336;28;879;-62
2021/03/21 15:22:52;;;;;;;;;;;;;;;;;;5048036;28;846;-62
2021/03/21 15:25:18;;;;;;;;;;;;;;;;;;5047378;28;950;-62
2021/03/21 15:27:43;;;;;;;;;;;;;;;;;;5046475;28;925;-61
2021/03/21 15:30:09;;;;;;;;;;;;;;;;;;5047352;28;800;-62
2021/03/21 15:32:35;;;;;;;;;;;;;;;;;;5047336;28;1043;-63
2021/03/21 15:35:01;;;;;;;;;;;;;;;;;;5047716;28;1971;-61
2021/03/21 15:37:27;;;;;;;;;;;;;;;;;;5046954;28;851;-62
2021/03/21 15:39:52;;;;;;;;;;;;;;;;;;5047959;28;866;-61
2021/03/21 15:42:17;;;;;;;;;;;;;;;;;;5047427;28;850;-61
2021/03/21 15:44:43;;;;;;;;;;;;;;;;;;5047268;28;915;-61
2021/03/21 15:47:08;;;;;;;;;;;;;;;;;;5047792;28;886;-62
2021/03/21 15:49:33;;;;;;;;;;;;;;;;;;5048090;28;847;-61
2021/03/21 15:51:59;;;;;;;;;;;;;;;;;;5047767;28;882;-62
2021/03/21 15:54:24;;;;;;;;;;;;;;;;;;5046723;28;1902;-61
2021/03/21 15:56:49;;;;;;;;;;;;;;;;;;5047883;28;860;-61
2021/03/21 15:59:15;;;;;;;;;;;;;;;;;;5047215;28;887;-61
2021/03/21 16:01:40;;;;;;;;;;;;;;;;;;5047275;28;878;-62
2021/03/21 16:04:06;;;;;;;;;;;;;;;;;;5047555;28;799;-61
2021/03/21 16:06:31;;;;;;;;;;;;;;;;;;5048149;28;822;-61
2021/03/21 16:08:56;;;;;;;;;;;;;;;;;;5047042;28;867;-62
2021/03/21 16:11:22;;;;;;;;;;;;;;;;;;5049528;28;1152;-61
2021/03/21 16:13:48;;;;;;;;;;;;;;;;;;5047335;28;1969;-61
2021/03/21 16:16:14;;;;;;;;;;;;;;;;;;5047025;28;882;-61
2021/03/21 16:18:39;;;;;;;;;;;;;;;;;;5047007;28;851;-61
2021/03/21 16:21:05;;;;;;;;;;;;;;;;;;5047388;28;901;-62
2021/03/21 16:23:30;;;;;;;;;;;;;;;;;;5048060;28;878;-62
2021/03/21 16:25:56;;;;;;;;;;;;;;;;;;5047338;28;755;-62
2021/03/21 16:28:22;;;;;;;;;;;;;;;;;;5047310;28;848;-61
2021/03/21 16:30:47;;;;;;;;;;;;;;;;;;5047647;28;896;-61
2021/03/21 16:33:14;;;;;;;;;;;;;;;;;;5048634;28;1893;-61
2021/03/21 16:35:41;;;;;;;;;;;;;;;;;;5050784;28;1079;-61
2021/03/21 16:38:07;;;;;;;;;;;;;;;;;;5051358;28;929;-62
2021/03/21 16:40:34;;;;;;;;;;;;;;;;;;5051419;28;862;-61
2021/03/21 16:43:00;;;;;;;;;;;;;;;;;;5050531;28;927;-61
2021/03/21 16:45:28;;;;;;;;;;;;;;;;;;5050511;28;854;-61
2021/03/21 16:47:58;;;;;;;;;;;;;;;;;;5050595;28;807;-61
2021/03/21 16:50:24;;;;;;;;;;;;;;;;;;5049976;28;1301;-61
2021/03/21 16:52:49;;;;;;;;;;;;;;;;;;5050172;28;1098;-61
2021/03/21 16:55:15;;;;;;;;;;;;;;;;;;5050839;28;1965;-62
2021/03/21 16:57:40;;;;;;;;;;;;;;;;;;5050729;28;835;-62
2021/03/21 17:00:08;;;;;;;;;;;;;;;;;;5050390;28;843;-62
2021/03/21 17:02:34;;;;;;;;;;;;;;;;;;5051239;28;972;-61
2021/03/21 17:05:00;;;;;;;;;;;;;;;;;;5049414;28;1069;-61
2021/03/21 17:07:25;;;;;;;;;;;;;;;;;;5049847;28;1056;-62
2021/03/21 17:09:51;;;;;;;;;;;;;;;;;;5049650;28;815;-62
2021/03/21 17:12:16;;;;;;;;;;;;;;;;;;5049820;28;883;-62
2021/03/21 17:14:42;;;;;;;;;;;;;;;;;;5049423;28;1993;-62
2021/03/21 17:17:07;;;;;;;;;;;;;;;;;;5049827;28;902;-61
2021/03/21 17:19:32;;;;;;;;;;;;;;;;;;5050656;28;878;-62
2021/03/21 17:21:58;;;;;;;;;;;;;;;;;;5049378;28;827;-61
2021/03/21 17:24:23;;;;;;;;;;;;;;;;;;5049758;28;795;-62
2021/03/21 17:26:48;;;;;;;;;;;;;;;;;;5050031;28;879;-62
2021/03/21 17:29:14;;;;;;;;;;;;;;;;;;5049516;28;926;-62
2021/03/21 17:31:39;;;;;;;;;;;;;;;;;;5049071;28;815;-62
2021/03/21 17:34:07;;;;;;;;;;;;;;;;;;5049022;28;1985;-62
2021/03/21 17:36:32;;;;;;;;;;;;;;;;;;5050323;28;1003;-62
2021/03/21 17:38:57;;;;;;;;;;;;;;;;;;5037325;28;954;-62